Time;durP1;ratioP1;P1;durP2;ratioP2;P2;SDS_P1;SDS_P2;PMS_P1;PMS_P2;Temp;Humidity;BMP_temperature;BMP_pressure;BME280_temperature;BME280_humidity;BME280_pressure;Samples;Min_cycle;Max_cycle;Signal;HPM_P1;HPM_P2
2023/03/09 00:02:13;;;;;;;6.93;3.10;;;;;;;;;;5012217;28;20032;-65
2023/03/09 00:04:40;;;;;;;11.43;3.13;;;;;;;;;;5011216;28;20025;-65
2023/03/09 00:07:07;;;;;;;8.55;3.50;;;;;;;;;;5007202;28;20092;-66
2023/03/09 00:09:34;;;;;;;12.38;4.10;;;;;;;;;;5007557;28;20026;-66
2023/03/09 00:12:00;;;;;;;7.13;3.17;;;;;;;;;;5007559;28;20037;-66
2023/03/09 00:14:27;;;;;;;12.48;3.78;;;;;;;;;;5008645;28;20033;-65
2023/03/09 00:16:54;;;;;;;7.30;3.88;;;;;;;;;;5012372;28;20034;-65
2023/03/09 00:19:26;;;;;;;5.35;2.95;;;;;;;;;;5012202;28;20029;-65
2023/03/09 00:21:56;;;;;;;10.88;3.35;;;;;;;;;;5012238;28;20022;-65
2023/03/09 00:24:27;;;;;;;5.88;3.50;;;;;;;;;;5012086;28;20431;-66
2023/03/09 00:26:56;;;;;;;4.55;2.83;;;;;;;;;;5011236;28;20350;-65
2023/03/09 00:29:23;;;;;;;7.32;3.42;;;;;;;;;;5006848;28;20040;-65
2023/03/09 00:31:50;;;;;;;7.43;3.88;;;;;;;;;;5007641;28;20030;-66
2023/03/09 00:34:17;;;;;;;4.40;3.30;;;;;;;;;;5007354;28;20030;-65
2023/03/09 00:36:44;;;;;;;6.70;3.67;;;;;;;;;;5008063;28;20034;-66
2023/03/09 00:39:11;;;;;;;13.00;3.73;;;;;;;;;;5012231;28;20453;-65
2023/03/09 00:41:38;;;;;;;7.70;3.00;;;;;;;;;;5012389;28;20062;-65
2023/03/09 00:44:05;;;;;;;6.80;3.60;;;;;;;;;;5011934;28;20018;-65
2023/03/09 00:46:32;;;;;;;6.33;3.13;;;;;;;;;;5012005;28;20068;-65
2023/03/09 00:48:59;;;;;;;5.80;3.33;;;;;;;;;;5010609;28;20502;-66
2023/03/09 00:51:26;;;;;;;6.27;3.83;;;;;;;;;;5007169;28;20100;-66
2023/03/09 00:53:53;;;;;;;6.40;3.67;;;;;;;;;;5007089;28;20088;-68
2023/03/09 00:56:21;;;;;;;4.70;3.33;;;;;;;;;;5007198;28;20377;-67
2023/03/09 00:58:48;;;;;;;13.43;2.97;;;;;;;;;;5006761;28;20080;-68
2023/03/09 01:01:15;;;;;;;9.57;3.07;;;;;;;;;;5012306;28;20472;-67
2023/03/09 01:03:42;;;;;;;10.17;4.87;;;;;;;;;;5011787;28;20550;-67
2023/03/09 01:06:09;;;;;;;7.33;3.67;;;;;;;;;;5011862;28;20378;-67
2023/03/09 01:08:36;;;;;;;5.23;3.10;;;;;;;;;;5012405;28;20084;-67
2023/03/09 01:11:07;;;;;;;9.70;3.83;;;;;;;;;;5011840;28;20113;-67
2023/03/09 01:13:34;;;;;;;6.27;3.93;;;;;;;;;;5010333;28;20026;-68
2023/03/09 01:16:00;;;;;;;10.57;3.50;;;;;;;;;;5010857;28;20069;-67
2023/03/09 01:18:27;;;;;;;5.30;3.30;;;;;;;;;;5010798;28;20388;-67
2023/03/09 01:20:54;;;;;;;7.27;3.77;;;;;;;;;;5010484;28;20022;-67
2023/03/09 01:23:20;;;;;;;17.43;3.90;;;;;;;;;;5015232;28;20030;-67
2023/03/09 01:25:47;;;;;;;6.03;3.10;;;;;;;;;;5015213;28;20026;-67
2023/03/09 01:28:14;;;;;;;6.00;3.60;;;;;;;;;;5015345;28;20029;-66
2023/03/09 01:30:40;;;;;;;5.43;3.60;;;;;;;;;;5014504;28;20361;-67
2023/03/09 01:33:07;;;;;;;5.30;3.53;;;;;;;;;;5015354;28;20076;-67
2023/03/09 01:35:34;;;;;;;5.77;3.30;;;;;;;;;;5010784;28;20092;-66
2023/03/09 01:38:00;;;;;;;7.40;3.30;;;;;;;;;;5009810;28;20037;-67
2023/03/09 01:40:28;;;;;;;8.70;3.60;;;;;;;;;;5010277;28;20022;-67
2023/03/09 01:43:02;;;;;;;9.17;3.63;;;;;;;;;;5005800;28;20034;-66
2023/03/09 01:45:28;;;;;;;6.63;3.92;;;;;;;;;;5014419;28;20030;-66
2023/03/09 01:47:57;;;;;;;7.77;3.70;;;;;;;;;;5015015;28;20068;-66
2023/03/09 01:50:30;;;;;;;4.93;3.57;;;;;;;;;;5015153;28;20037;-67
2023/03/09 01:53:01;;;;;;;28.87;4.07;;;;;;;;;;5014945;28;20030;-67
2023/03/09 01:55:31;;;;;;;5.20;3.77;;;;;;;;;;5015146;28;20033;-67
2023/03/09 01:58:04;;;;;;;4.37;3.20;;;;;;;;;;5009937;28;20456;-66
2023/03/09 02:00:31;;;;;;;5.23;3.73;;;;;;;;;;5009994;28;20480;-66
2023/03/09 02:03:01;;;;;;;12.57;4.23;;;;;;;;;;5009878;28;20045;-66
2023/03/09 02:05:32;;;;;;;6.23;3.80;;;;;;;;;;5009905;28;20026;-66
2023/03/09 02:08:03;;;;;;;5.80;3.80;;;;;;;;;;5014146;28;20109;-67
2023/03/09 02:10:31;;;;;;;5.13;3.30;;;;;;;;;;5014856;28;20034;-67
2023/03/09 02:12:59;;;;;;;5.77;3.30;;;;;;;;;;5014668;28;20030;-66
2023/03/09 02:15:26;;;;;;;4.93;3.20;;;;;;;;;;5015024;28;20085;-66
2023/03/09 02:17:53;;;;;;;9.93;4.00;;;;;;;;;;5014711;28;20125;-66
2023/03/09 02:20:33;;;;;;;11.43;2.97;;;;;;;;;;5009586;28;20449;-66
2023/03/09 02:23:00;;;;;;;5.17;3.40;;;;;;;;;;5009244;28;20032;-66
2023/03/09 02:25:29;;;;;;;5.63;3.83;;;;;;;;;;5009395;28;20029;-66
2023/03/09 02:27:56;;;;;;;5.07;3.80;;;;;;;;;;5009653;28;20084;-66
2023/03/09 02:30:24;;;;;;;4.97;3.53;;;;;;;;;;5014190;28;20066;-66
2023/03/09 02:32:51;;;;;;;5.90;3.63;;;;;;;;;;5013965;28;20084;-66
2023/03/09 02:35:18;;;;;;;8.00;4.00;;;;;;;;;;5014461;28;20030;-67
2023/03/09 02:37:44;;;;;;;7.30;4.37;;;;;;;;;;5013973;28;20034;-66
2023/03/09 02:40:14;;;;;;;6.03;4.03;;;;;;;;;;5014468;28;20042;-66
2023/03/09 02:42:42;;;;;;;4.73;4.00;;;;;;;;;;5009106;28;20473;-66
2023/03/09 02:45:11;;;;;;;7.20;4.03;;;;;;;;;;5008956;28;20033;-67
2023/03/09 02:47:38;;;;;;;9.03;4.77;;;;;;;;;;5008710;28;20026;-67
2023/03/09 02:50:06;;;;;;;7.53;4.57;;;;;;;;;;5009088;28;20404;-66
2023/03/09 02:52:33;;;;;;;6.47;3.87;;;;;;;;;;5012953;28;20065;-66
2023/03/09 02:55:00;;;;;;;6.30;4.60;;;;;;;;;;5014037;28;20377;-66
2023/03/09 02:57:26;;;;;;;7.27;3.90;;;;;;;;;;5013561;28;20038;-67
2023/03/09 02:59:53;;;;;;;6.00;4.00;;;;;;;;;;5013183;28;20109;-66
2023/03/09 03:02:20;;;;;;;6.57;4.27;;;;;;;;;;5012812;28;20033;-66
2023/03/09 03:04:46;;;;;;;9.37;5.37;;;;;;;;;;5009357;28;20053;-67
2023/03/09 03:07:13;;;;;;;5.77;3.73;;;;;;;;;;5008906;28;20030;-66
2023/03/09 03:09:40;;;;;;;4.77;3.77;;;;;;;;;;5008274;28;20029;-67
2023/03/09 03:12:06;;;;;;;7.70;4.53;;;;;;;;;;5008517;28;20042;-66
2023/03/09 03:14:33;;;;;;;7.13;3.80;;;;;;;;;;5010278;28;20134;-67
2023/03/09 03:17:00;;;;;;;7.30;3.90;;;;;;;;;;5012382;28;20076;-67
2023/03/09 03:19:27;;;;;;;6.43;3.97;;;;;;;;;;5013683;28;20030;-66
2023/03/09 03:21:53;;;;;;;7.00;4.83;;;;;;;;;;5013687;28;20469;-66
2023/03/09 03:24:20;;;;;;;6.57;4.50;;;;;;;;;;5013619;28;20412;-67
2023/03/09 03:26:47;;;;;;;7.37;4.23;;;;;;;;;;5010079;28;20113;-66
2023/03/09 03:29:14;;;;;;;5.93;4.37;;;;;;;;;;5008450;28;20405;-66
2023/03/09 03:31:40;;;;;;;6.70;4.60;;;;;;;;;;5008380;28;20026;-67
2023/03/09 03:34:08;;;;;;;6.13;4.03;;;;;;;;;;5008584;28;20477;-67
2023/03/09 03:36:34;;;;;;;8.60;5.03;;;;;;;;;;5010401;28;20544;-67
2023/03/09 03:39:02;;;;;;;7.93;5.13;;;;;;;;;;5013397;28;20354;-66
2023/03/09 03:41:29;;;;;;;6.40;4.47;;;;;;;;;;5013549;28;20022;-67
2023/03/09 03:43:56;;;;;;;5.83;4.40;;;;;;;;;;5013427;28;20026;-67
2023/03/09 03:46:22;;;;;;;6.60;4.33;;;;;;;;;;5013062;28;20514;-67
2023/03/09 03:48:49;;;;;;;9.77;4.90;;;;;;;;;;5009997;28;20029;-66
2023/03/09 03:51:16;;;;;;;18.63;5.50;;;;;;;;;;5008483;28;20021;-66
2023/03/09 03:53:42;;;;;;;6.13;4.33;;;;;;;;;;5008094;28;20018;-67
2023/03/09 03:56:09;;;;;;;4.97;3.90;;;;;;;;;;5008169;28;20032;-67
2023/03/09 03:58:36;;;;;;;4.43;3.27;;;;;;;;;;5010527;28;20034;-66
2023/03/09 04:01:03;;;;;;;6.10;4.27;;;;;;;;;;5013122;28;20030;-66
2023/03/09 04:03:30;;;;;;;6.50;4.70;;;;;;;;;;5012673;28;20033;-67
2023/03/09 04:05:57;;;;;;;7.30;4.77;;;;;;;;;;5013005;28;20026;-67
2023/03/09 04:08:24;;;;;;;9.07;4.80;;;;;;;;;;5013373;28;20057;-66
2023/03/09 04:10:51;;;;;;;7.90;4.20;;;;;;;;;;5010099;28;20029;-66
2023/03/09 04:13:17;;;;;;;8.57;5.20;;;;;;;;;;5008074;28;20025;-66
2023/03/09 04:15:44;;;;;;;7.37;5.00;;;;;;;;;;5008026;28;20030;-66
2023/03/09 04:18:11;;;;;;;6.43;4.87;;;;;;;;;;5007910;28;20034;-66
2023/03/09 04:20:38;;;;;;;5.77;4.40;;;;;;;;;;5009428;28;20046;-67
2023/03/09 04:23:05;;;;;;;5.17;3.90;;;;;;;;;;5012748;28;20388;-66
2023/03/09 04:25:31;;;;;;;12.30;5.67;;;;;;;;;;5013008;28;20029;-66
2023/03/09 04:27:58;;;;;;;8.10;5.30;;;;;;;;;;5012567;28;20064;-66
2023/03/09 04:30:25;;;;;;;9.63;6.17;;;;;;;;;;4999330;28;20118;-66
2023/03/09 04:32:52;;;;;;;6.20;5.07;;;;;;;;;;5000041;28;20520;-66
2023/03/09 04:35:18;;;;;;;7.57;5.73;;;;;;;;;;5007551;28;20038;-66
2023/03/09 04:37:45;;;;;;;6.33;4.53;;;;;;;;;;5007039;28;20480;-66
2023/03/09 04:40:12;;;;;;;9.93;4.67;;;;;;;;;;5007559;28;20026;-67
2023/03/09 04:42:39;;;;;;;6.67;5.30;;;;;;;;;;5005472;28;20034;-66
2023/03/09 04:45:06;;;;;;;6.77;5.07;;;;;;;;;;4995649;28;20026;-66
2023/03/09 04:47:33;;;;;;;8.23;6.13;;;;;;;;;;5013796;28;20040;-66
2023/03/09 04:49:59;;;;;;;8.13;5.57;;;;;;;;;;5016255;28;20468;-66
2023/03/09 04:52:26;;;;;;;7.00;5.00;;;;;;;;;;5016938;28;20421;-66
2023/03/09 04:54:54;;;;;;;6.73;5.03;;;;;;;;;;5015126;28;20072;-66
2023/03/09 04:57:21;;;;;;;7.93;5.20;;;;;;;;;;5010910;28;20125;-66
2023/03/09 04:59:48;;;;;;;8.53;5.83;;;;;;;;;;5011684;28;20127;-66
2023/03/09 05:02:17;;;;;;;11.90;6.10;;;;;;;;;;5011178;28;20117;-66
2023/03/09 05:04:44;;;;;;;6.60;5.00;;;;;;;;;;5011963;28;20543;-66
2023/03/09 05:07:11;;;;;;;7.00;5.40;;;;;;;;;;5016111;28;20030;-65
2023/03/09 05:09:38;;;;;;;6.27;4.67;;;;;;;;;;5016160;28;20026;-66
2023/03/09 05:12:05;;;;;;;7.57;5.10;;;;;;;;;;5016023;28;20461;-66
2023/03/09 05:14:32;;;;;;;6.87;5.33;;;;;;;;;;5016171;28;20036;-66
2023/03/09 05:16:58;;;;;;;7.97;5.10;;;;;;;;;;5014832;28;20048;-66
2023/03/09 05:19:25;;;;;;;8.77;5.37;;;;;;;;;;5010888;28;20029;-67
2023/03/09 05:21:52;;;;;;;9.40;4.80;;;;;;;;;;5011180;28;20088;-66
2023/03/09 05:24:19;;;;;;;7.07;4.83;;;;;;;;;;5011060;28;20080;-66
2023/03/09 05:26:45;;;;;;;10.33;5.43;;;;;;;;;;5010710;28;20053;-65
2023/03/09 05:29:12;;;;;;;4.63;3.63;;;;;;;;;;5015874;28;20362;-66
2023/03/09 05:31:39;;;;;;;5.27;4.57;;;;;;;;;;5015384;28;20030;-66
2023/03/09 05:34:05;;;;;;;9.50;4.60;;;;;;;;;;5015804;28;20350;-66
2023/03/09 05:36:32;;;;;;;6.97;3.77;;;;;;;;;;5015177;28;20021;-66
2023/03/09 05:38:59;;;;;;;12.70;5.70;;;;;;;;;;5015626;28;20061;-66
2023/03/09 05:41:25;;;;;;;13.17;4.17;;;;;;;;;;5010645;28;20018;-65
2023/03/09 05:43:52;;;;;;;6.40;3.83;;;;;;;;;;5010702;28;20090;-67
2023/03/09 05:46:19;;;;;;;3.27;2.60;;;;;;;;;;5010040;28;20029;-66
2023/03/09 05:48:48;;;;;;;5.73;4.37;;;;;;;;;;5010093;28;20022;-67
2023/03/09 05:51:15;;;;;;;5.20;3.60;;;;;;;;;;5015061;28;20108;-67
2023/03/09 05:53:42;;;;;;;3.33;2.47;;;;;;;;;;5015240;28;20566;-67
2023/03/09 05:56:08;;;;;;;4.37;3.13;;;;;;;;;;5015341;28;20364;-66
2023/03/09 05:58:35;;;;;;;4.23;3.20;;;;;;;;;;5014288;28;20117;-67
2023/03/09 06:01:02;;;;;;;5.20;3.17;;;;;;;;;;5014920;28;20034;-66
2023/03/09 06:03:29;;;;;;;5.03;3.47;;;;;;;;;;5010478;28;20058;-65
2023/03/09 06:05:59;;;;;;;3.47;2.40;;;;;;;;;;5010006;28;20022;-68
2023/03/09 06:08:26;;;;;;;12.00;5.37;;;;;;;;;;5010226;28;20029;-67
2023/03/09 06:10:53;;;;;;;5.40;3.83;;;;;;;;;;5009484;28;20083;-67
2023/03/09 06:13:20;;;;;;;7.67;3.07;;;;;;;;;;5014007;28;20025;-66
2023/03/09 06:15:47;;;;;;;4.23;3.07;;;;;;;;;;5014971;28;20465;-67
2023/03/09 06:18:13;;;;;;;3.93;3.00;;;;;;;;;;5014773;28;20041;-67
2023/03/09 06:20:40;;;;;;;16.63;4.40;;;;;;;;;;5014621;28;20034;-67
2023/03/09 06:23:07;;;;;;;6.93;3.77;;;;;;;;;;5014010;28;20026;-67
2023/03/09 06:25:33;;;;;;;4.67;3.03;;;;;;;;;;5010404;28;20036;-67
2023/03/09 06:28:00;;;;;;;7.53;4.33;;;;;;;;;;5009389;28;20070;-67
2023/03/09 06:30:28;;;;;;;2.90;2.40;;;;;;;;;;5009440;28;20030;-67
2023/03/09 06:32:56;;;;;;;4.77;3.20;;;;;;;;;;5009214;28;20084;-67
2023/03/09 06:35:23;;;;;;;5.57;3.23;;;;;;;;;;5013305;28;20377;-67
2023/03/09 06:37:50;;;;;;;6.37;3.00;;;;;;;;;;5014381;28;20092;-67
2023/03/09 06:40:17;;;;;;;6.80;3.30;;;;;;;;;;5014035;28;20025;-67
2023/03/09 06:42:44;;;;;;;5.07;3.03;;;;;;;;;;5014249;28;20030;-66
2023/03/09 06:45:11;;;;;;;5.37;4.17;;;;;;;;;;5014157;28;20030;-67
2023/03/09 06:47:37;;;;;;;6.80;4.47;;;;;;;;;;5010607;28;20025;-67
2023/03/09 06:50:04;;;;;;;5.10;3.77;;;;;;;;;;5009136;28;20018;-67
2023/03/09 06:52:31;;;;;;;4.93;3.47;;;;;;;;;;5008891;28;20038;-67
2023/03/09 06:54:58;;;;;;;4.90;2.70;;;;;;;;;;5008939;28;20030;-67
2023/03/09 06:57:25;;;;;;;4.90;3.33;;;;;;;;;;5011394;28;20095;-67
2023/03/09 06:59:51;;;;;;;4.20;2.80;;;;;;;;;;5014327;28;20353;-67
2023/03/09 07:02:18;;;;;;;3.93;3.43;;;;;;;;;;5013669;28;20542;-67
2023/03/09 07:04:46;;;;;;;6.73;3.00;;;;;;;;;;5013957;28;20048;-67
2023/03/09 07:07:12;;;;;;;6.83;4.30;;;;;;;;;;5013992;28;20053;-67
2023/03/09 07:09:39;;;;;;;8.00;3.63;;;;;;;;;;5010762;28;20034;-67
2023/03/09 07:12:06;;;;;;;11.67;4.07;;;;;;;;;;5008732;28;20029;-67
2023/03/09 07:14:33;;;;;;;6.27;4.13;;;;;;;;;;5008045;28;20061;-67
2023/03/09 07:17:00;;;;;;;6.87;4.20;;;;;;;;;;5008680;28;20385;-67
2023/03/09 07:19:26;;;;;;;6.50;3.80;;;;;;;;;;5010716;28;20029;-68
2023/03/09 07:21:56;;;;;;;10.33;4.10;;;;;;;;;;5013671;28;20108;-67
2023/03/09 07:24:23;;;;;;;3.50;3.10;;;;;;;;;;5013310;28;20026;-67
2023/03/09 07:26:49;;;;;;;9.53;4.53;;;;;;;;;;5013821;28;20473;-67
2023/03/09 07:29:16;;;;;;;5.13;3.90;;;;;;;;;;5013411;28;20034;-67
2023/03/09 07:31:43;;;;;;;10.00;4.50;;;;;;;;;;5010449;28;20452;-67
2023/03/09 07:34:10;;;;;;;9.07;3.83;;;;;;;;;;5008216;28;20100;-67
2023/03/09 07:36:37;;;;;;;5.30;4.20;;;;;;;;;;5007982;28;20030;-67
2023/03/09 07:39:03;;;;;;;23.33;5.07;;;;;;;;;;5008302;28;20057;-67
2023/03/09 07:41:30;;;;;;;4.37;3.40;;;;;;;;;;5010132;28;20026;-67
2023/03/09 07:43:58;;;;;;;7.10;4.20;;;;;;;;;;5013190;28;20030;-67
2023/03/09 07:46:25;;;;;;;6.50;4.03;;;;;;;;;;5013371;28;20037;-67
2023/03/09 07:48:51;;;;;;;4.83;3.60;;;;;;;;;;5012680;28;20026;-68
2023/03/09 07:51:18;;;;;;;4.57;2.87;;;;;;;;;;5013124;28;20049;-67
2023/03/09 07:53:45;;;;;;;4.33;3.10;;;;;;;;;;5010642;28;20041;-68
2023/03/09 07:56:12;;;;;;;5.47;3.40;;;;;;;;;;5007990;28;20018;-67
2023/03/09 07:58:40;;;;;;;3.57;2.80;;;;;;;;;;5008010;28;20059;-67
2023/03/09 08:01:07;;;;;;;5.83;4.17;;;;;;;;;;5008134;28;20030;-67
2023/03/09 08:03:35;;;;;;;4.20;3.13;;;;;;;;;;5009018;28;20026;-67
2023/03/09 08:06:05;;;;;;;4.57;3.50;;;;;;;;;;5012378;28;20358;-67
2023/03/09 08:08:32;;;;;;;1.97;1.63;;;;;;;;;;5012914;28;20375;-67
2023/03/09 08:10:59;;;;;;;3.53;2.77;;;;;;;;;;5012782;28;20033;-67
2023/03/09 08:13:25;;;;;;;8.60;4.27;;;;;;;;;;5012632;28;20025;-67
2023/03/09 08:15:52;;;;;;;3.73;2.87;;;;;;;;;;5011188;28;20045;-67
2023/03/09 08:18:20;;;;;;;8.23;3.67;;;;;;;;;;5007540;28;20397;-67
2023/03/09 08:20:47;;;;;;;4.97;3.90;;;;;;;;;;5007257;28;20026;-67
2023/03/09 08:23:14;;;;;;;6.30;4.70;;;;;;;;;;5006927;28;20040;-67
2023/03/09 08:25:41;;;;;;;4.97;4.00;;;;;;;;;;5008592;28;20022;-67
2023/03/09 08:28:07;;;;;;;6.50;3.93;;;;;;;;;;5012573;28;20037;-67
2023/03/09 08:30:34;;;;;;;4.70;3.27;;;;;;;;;;5012491;28;20094;-67
2023/03/09 08:33:01;;;;;;;5.13;3.90;;;;;;;;;;5012473;28;20025;-67
2023/03/09 08:35:30;;;;;;;5.80;3.63;;;;;;;;;;5012395;28;20138;-68
2023/03/09 08:37:56;;;;;;;6.43;4.27;;;;;;;;;;5010966;28;20112;-67
2023/03/09 08:40:23;;;;;;;5.60;3.23;;;;;;;;;;5006990;28;20032;-67
2023/03/09 08:42:50;;;;;;;3.93;2.93;;;;;;;;;;5007364;28;20036;-67
2023/03/09 08:45:16;;;;;;;3.70;2.60;;;;;;;;;;5007250;28;20075;-67
2023/03/09 08:47:46;;;;;;;8.10;4.00;;;;;;;;;;5007972;28;20033;-67
2023/03/09 08:50:12;;;;;;;6.93;3.47;;;;;;;;;;5012371;28;20515;-67
2023/03/09 08:52:40;;;;;;;3.13;2.23;;;;;;;;;;5012352;28;20022;-67
2023/03/09 08:55:08;;;;;;;2.63;2.20;;;;;;;;;;5011663;28;20022;-67
2023/03/09 08:57:34;;;;;;;3.43;2.63;;;;;;;;;;5012321;28;20511;-67
2023/03/09 09:00:03;;;;;;;7.00;3.83;;;;;;;;;;5011647;28;20030;-67
2023/03/09 09:02:29;;;;;;;10.07;5.73;;;;;;;;;;5006994;28;20105;-67
2023/03/09 09:04:56;;;;;;;5.87;3.90;;;;;;;;;;5007182;28;20041;-67
2023/03/09 09:07:24;;;;;;;3.97;3.23;;;;;;;;;;5007041;28;20026;-67
2023/03/09 09:09:50;;;;;;;5.97;4.60;;;;;;;;;;5006616;28;20022;-67
2023/03/09 09:12:17;;;;;;;5.10;3.87;;;;;;;;;;5011778;28;20708;-68
2023/03/09 09:14:44;;;;;;;4.90;3.60;;;;;;;;;;5012272;28;20026;-67
2023/03/09 09:17:11;;;;;;;6.93;4.63;;;;;;;;;;5012110;28;20034;-67
2023/03/09 09:19:41;;;;;;;4.97;3.13;;;;;;;;;;5012037;28;20022;-66
2023/03/09 09:22:08;;;;;;;3.77;2.87;;;;;;;;;;5011725;28;20033;-67
2023/03/09 09:24:36;;;;;;;10.40;4.77;;;;;;;;;;5007404;28;20038;-67
2023/03/09 09:27:04;;;;;;;9.17;4.17;;;;;;;;;;5006881;28;20029;-67
2023/03/09 09:29:31;;;;;;;5.93;4.40;;;;;;;;;;5006854;28;20030;-67
2023/03/09 09:31:57;;;;;;;6.67;5.10;;;;;;;;;;5006773;28;20457;-67
2023/03/09 09:34:24;;;;;;;5.33;4.43;;;;;;;;;;5012798;28;20025;-67
2023/03/09 09:36:51;;;;;;;6.70;4.80;;;;;;;;;;5015489;28;20028;-67
2023/03/09 09:39:18;;;;;;;6.93;4.47;;;;;;;;;;5015563;28;20109;-67
2023/03/09 09:41:49;;;;;;;7.87;4.77;;;;;;;;;;5015305;28;20484;-67
2023/03/09 09:44:21;;;;;;;6.77;4.60;;;;;;;;;;5015317;28;20022;-67
2023/03/09 09:46:49;;;;;;;4.87;4.37;;;;;;;;;;5010107;28;20044;-67
2023/03/09 09:49:20;;;;;;;6.23;4.70;;;;;;;;;;5010174;28;20033;-67
2023/03/09 09:51:56;;;;;;;6.43;3.80;;;;;;;;;;5010300;28;20125;-67
2023/03/09 09:54:29;;;;;;;7.17;3.23;;;;;;;;;;5009988;28;20509;-67
2023/03/09 09:57:00;;;;;;;12.57;4.17;;;;;;;;;;5015222;28;20033;-67
2023/03/09 09:59:26;;;;;;;5.73;3.73;;;;;;;;;;5015076;28;20097;-67
2023/03/09 10:01:59;;;;;;;33.50;3.53;;;;;;;;;;5015150;28;20025;-67
2023/03/09 10:04:32;;;;;;;5.57;4.13;;;;;;;;;;5015149;28;20748;-67
2023/03/09 10:07:01;;;;;;;4.10;3.17;;;;;;;;;;5014018;28;20049;-67
2023/03/09 10:09:33;;;;;;;4.47;2.80;;;;;;;;;;5009756;28;20021;-67
2023/03/09 10:12:06;;;;;;;4.20;3.30;;;;;;;;;;5009857;28;20380;-67
2023/03/09 10:14:35;;;;;;;3.47;2.70;;;;;;;;;;5009856;28;20372;-67
2023/03/09 10:17:01;;;;;;;6.17;5.23;;;;;;;;;;5010421;28;20037;-67
2023/03/09 10:19:41;;;;;;;5.77;4.13;;;;;;;;;;5014673;28;20474;-67
2023/03/09 10:22:16;;;;;;;6.47;3.97;;;;;;;;;;5014711;28;20022;-67
2023/03/09 10:24:50;;;;;;;4.35;3.40;;;;;;;;;;5014836;28;20029;-67
2023/03/09 10:27:29;;;;;;;5.73;3.80;;;;;;;;;;5013738;28;20364;-67
2023/03/09 10:29:59;;;;;;;9.93;3.67;;;;;;;;;;5011386;28;20030;-67
2023/03/09 10:32:38;;;;;;;13.73;5.37;;;;;;;;;;5009390;28;20076;-67
2023/03/09 10:35:22;;;;;;;4.50;2.93;;;;;;;;;;5009400;28;20037;-67
2023/03/09 10:37:50;;;;;;;5.30;3.03;;;;;;;;;;5009849;28;20156;-67
2023/03/09 10:40:24;;;;;;;21.10;6.33;;;;;;;;;;5011819;28;20048;-67
2023/03/09 10:42:51;;;;;;;7.70;4.95;;;;;;;;;;5014614;28;20040;-67
2023/03/09 10:45:18;;;;;;;5.17;4.17;;;;;;;;;;5013851;28;20097;-67
2023/03/09 10:47:50;;;;;;;5.97;4.20;;;;;;;;;;5014272;28;20021;-67
2023/03/09 10:50:17;;;;;;;5.67;4.33;;;;;;;;;;5014032;28;20034;-67
2023/03/09 10:52:43;;;;;;;8.80;5.77;;;;;;;;;;5010343;28;20025;-67
2023/03/09 10:55:33;;;;;;;3.47;2.70;;;;;;;;;;5009058;28;20037;-67
2023/03/09 10:58:01;;;;;;;5.20;3.33;;;;;;;;;;5003630;28;20046;-67
2023/03/09 11:00:28;;;;;;;6.60;4.07;;;;;;;;;;5008694;28;20026;-67
2023/03/09 11:02:56;;;;;;;7.33;4.30;;;;;;;;;;5012021;28;20088;-67
2023/03/09 11:05:24;;;;;;;7.57;5.43;;;;;;;;;;5014065;28;20025;-67
2023/03/09 11:07:53;;;;;;;7.83;4.67;;;;;;;;;;5013897;28;20030;-67
2023/03/09 11:10:23;;;;;;;9.40;5.97;;;;;;;;;;5013783;28;20037;-67
2023/03/09 11:12:49;;;;;;;6.60;4.57;;;;;;;;;;5013915;28;20053;-67
2023/03/09 11:15:16;;;;;;;6.33;5.17;;;;;;;;;;5009821;28;20072;-67
2023/03/09 11:17:43;;;;;;;7.87;4.87;;;;;;;;;;5008317;28;20038;-67
2023/03/09 11:20:12;;;;;;;4.93;3.93;;;;;;;;;;5008308;28;20556;-67
2023/03/09 11:22:59;;;;;;;5.20;3.97;;;;;;;;;;5008443;28;20084;-67
2023/03/09 11:25:35;;;;;;;5.37;4.07;;;;;;;;;;5012483;28;20026;-67
2023/03/09 11:28:13;;;;;;;6.90;5.37;;;;;;;;;;5013182;28;20542;-67
2023/03/09 11:30:40;;;;;;;7.20;5.57;;;;;;;;;;5013352;28;20362;-67
2023/03/09 11:33:12;;;;;;;7.87;4.93;;;;;;;;;;5013453;28;20026;-67
2023/03/09 11:35:39;;;;;;;19.43;5.77;;;;;;;;;;5013357;28;20084;-67
2023/03/09 11:38:10;;;;;;;9.77;7.23;;;;;;;;;;5008032;28;20029;-67
2023/03/09 11:40:39;;;;;;;10.67;6.47;;;;;;;;;;5007829;28;20037;-67
2023/03/09 11:43:07;;;;;;;14.00;6.50;;;;;;;;;;5008386;28;20030;-67
2023/03/09 11:45:37;;;;;;;9.50;6.43;;;;;;;;;;5008160;28;20389;-67
2023/03/09 11:48:06;;;;;;;12.47;5.73;;;;;;;;;;5013056;28;20103;-67
2023/03/09 11:50:37;;;;;;;26.93;6.37;;;;;;;;;;5013003;28;20025;-67
2023/03/09 11:53:04;;;;;;;12.67;8.27;;;;;;;;;;5012888;28;20358;-67
2023/03/09 11:55:39;;;;;;;12.60;7.83;;;;;;;;;;5012939;28;20109;-67
2023/03/09 11:58:09;;;;;;;12.93;7.88;;;;;;;;;;5012108;28;20033;-67
2023/03/09 12:00:36;;;;;;;9.07;6.40;;;;;;;;;;5007529;28;20479;-67
2023/03/09 12:03:06;;;;;;;10.63;6.70;;;;;;;;;;5008071;28;20413;-66
2023/03/09 12:05:37;;;;;;;7.90;6.03;;;;;;;;;;5007928;28;20100;-67
2023/03/09 12:08:07;;;;;;;9.30;7.33;;;;;;;;;;5007803;28;20053;-67
2023/03/09 12:10:40;;;;;;;6.50;5.17;;;;;;;;;;5012503;28;20029;-67
2023/03/09 12:13:15;;;;;;;5.57;3.70;;;;;;;;;;5012895;28;20025;-67
2023/03/09 12:15:48;;;;;;;8.33;5.63;;;;;;;;;;5012851;28;20054;-67
2023/03/09 12:18:22;;;;;;;3.63;3.00;;;;;;;;;;5012299;28;20038;-67
2023/03/09 12:20:51;;;;;;;7.22;3.80;;;;;;;;;;5011254;28;20033;-67
2023/03/09 12:23:41;;;;;;;7.27;5.07;;;;;;;;;;5007537;28;20113;-67
2023/03/09 12:26:07;;;;;;;14.00;4.80;;;;;;;;;;5001896;28;20428;-67
2023/03/09 12:28:35;;;;;;;17.50;4.17;;;;;;;;;;5007118;28;20025;-67
2023/03/09 12:31:02;;;;;;;6.40;4.83;;;;;;;;;;5008703;28;20068;-66
2023/03/09 12:33:44;;;;;;;4.80;4.00;;;;;;;;;;5012586;28;20025;-66
2023/03/09 12:36:24;;;;;;;6.67;4.20;;;;;;;;;;5012510;28;20026;-67
2023/03/09 12:39:09;;;;;;;12.27;7.03;;;;;;;;;;5012426;28;20105;-67
2023/03/09 12:41:54;;;;;;;17.08;5.93;;;;;;;;;;5012171;28;20029;-66
2023/03/09 12:44:39;;;;;;;13.25;6.60;;;;;;;;;;5008397;28;20049;-67
2023/03/09 12:47:21;;;;;;;8.25;5.93;;;;;;;;;;5007290;28;20034;-67
2023/03/09 12:49:58;;;;;;;8.07;5.53;;;;;;;;;;5007291;28;20025;-67
2023/03/09 12:52:33;;;;;;;7.90;5.10;;;;;;;;;;5006788;28;20022;-67
2023/03/09 12:55:02;;;;;;;10.63;5.60;;;;;;;;;;5012250;28;20495;-66
2023/03/09 12:57:29;;;;;;;12.57;7.77;;;;;;;;;;5011159;28;20432;-67
2023/03/09 12:59:56;;;;;;;8.70;6.07;;;;;;;;;;5011893;28;20034;-67
2023/03/09 13:02:26;;;;;;;13.77;5.73;;;;;;;;;;5012146;28;20473;-66
2023/03/09 13:05:17;;;;;;;12.13;7.23;;;;;;;;;;5012199;28;20121;-66
2023/03/09 13:07:43;;;;;;;10.20;6.03;;;;;;;;;;5001532;28;20148;-67
2023/03/09 13:10:19;;;;;;;12.37;6.87;;;;;;;;;;4991532;28;20030;-66
2023/03/09 13:12:45;;;;;;;6.47;4.97;;;;;;;;;;4992463;28;20015;-67
2023/03/09 13:15:23;;;;;;;16.93;7.57;;;;;;;;;;5011298;28;20088;-67
2023/03/09 13:18:12;;;;;;;11.10;6.93;;;;;;;;;;5015819;28;20511;-66
2023/03/09 13:20:43;;;;;;;9.07;4.57;;;;;;;;;;5015901;28;20056;-66
2023/03/09 13:23:12;;;;;;;19.67;7.10;;;;;;;;;;5015577;28;20384;-67
2023/03/09 13:25:58;;;;;;;13.53;7.47;;;;;;;;;;5015774;28;20113;-66
2023/03/09 13:28:28;;;;;;;17.63;8.17;;;;;;;;;;5012606;28;20026;-66
2023/03/09 13:30:57;;;;;;;15.50;7.40;;;;;;;;;;5010379;28;20492;-67
2023/03/09 13:33:26;;;;;;;24.43;9.00;;;;;;;;;;5010418;28;20033;-67
2023/03/09 13:35:55;;;;;;;28.80;8.53;;;;;;;;;;5010330;28;20506;-67
2023/03/09 13:38:24;;;;;;;38.43;10.63;;;;;;;;;;5012924;28;20433;-67
2023/03/09 13:40:53;;;;;;;34.13;8.10;;;;;;;;;;5015075;28;20029;-66
2023/03/09 13:43:21;;;;;;;38.07;9.07;;;;;;;;;;5015331;28;20559;-67
2023/03/09 13:46:06;;;;;;;30.83;9.20;;;;;;;;;;5015338;28;20484;-66
2023/03/09 13:48:41;;;;;;;40.17;7.63;;;;;;;;;;5015577;28;20029;-67
2023/03/09 13:51:22;;;;;;;15.63;7.90;;;;;;;;;;5010920;28;20113;-67
2023/03/09 13:53:49;;;;;;;15.63;8.10;;;;;;;;;;5009512;28;20037;-67
2023/03/09 13:56:15;;;;;;;32.37;8.10;;;;;;;;;;5009467;28;20362;-67
2023/03/09 13:58:43;;;;;;;14.03;6.37;;;;;;;;;;5009843;28;20041;-67
2023/03/09 14:01:29;;;;;;;6.77;3.47;;;;;;;;;;5013757;28;20040;-66
2023/03/09 14:03:57;;;;;;;15.13;7.37;;;;;;;;;;5014750;28;20117;-67
2023/03/09 14:06:37;;;;;;;8.40;6.60;;;;;;;;;;5014624;28;20026;-68
2023/03/09 14:09:15;;;;;;;10.40;6.03;;;;;;;;;;5014942;28;20050;-67
2023/03/09 14:11:42;;;;;;;10.03;7.10;;;;;;;;;;5014441;28;20092;-66
2023/03/09 14:14:17;;;;;;;10.43;5.20;;;;;;;;;;5009873;28;20026;-67
2023/03/09 14:16:45;;;;;;;9.37;4.53;;;;;;;;;;5009557;28;20018;-67
2023/03/09 14:19:25;;;;;;;7.80;6.20;;;;;;;;;;5009717;28;20034;-68
2023/03/09 14:21:53;;;;;;;10.33;7.30;;;;;;;;;;5009146;28;20472;-67
2023/03/09 14:24:22;;;;;;;7.60;6.10;;;;;;;;;;5014814;28;20036;-68
2023/03/09 14:26:49;;;;;;;13.27;6.53;;;;;;;;;;5014728;28;20022;-68
2023/03/09 14:29:32;;;;;;;10.20;5.90;;;;;;;;;;5014350;28;20034;-69
2023/03/09 14:32:17;;;;;;;8.73;5.37;;;;;;;;;;5014193;28;20030;-69
2023/03/09 14:34:44;;;;;;;;;;;;;;;;;;5012717;28;20026;-67
2023/03/09 14:37:30;;;;;;;6.03;4.77;;;;;;;;;;5008943;28;19917;-69
2023/03/09 14:39:58;;;;;;;17.20;6.90;;;;;;;;;;5009414;28;20026;-69
2023/03/09 14:42:29;;;;;;;6.07;4.63;;;;;;;;;;5009175;28;20025;-68
2023/03/09 14:44:59;;;;;;;7.63;5.43;;;;;;;;;;5011219;28;20100;-68
2023/03/09 14:47:25;;;;;;;11.17;6.07;;;;;;;;;;5014091;28;20161;-67
2023/03/09 14:49:53;;;;;;;22.07;6.47;;;;;;;;;;5013754;28;20026;-67
2023/03/09 14:52:21;;;;;;;9.97;5.83;;;;;;;;;;5013736;28;20030;-69